This is the latest recevied weather packets stored in our database for station/object ZR6G-15. If no packets are shown the sender has not sent any weather packets the latest 1 day(s).
| Time | Temp. | Humidity | Pressure | Rain* | Wind** | Luminosity | Snow |
|---|---|---|---|---|---|---|---|
| 1777982068 | 18.89° C | 37% | 1003.4 hPa | - | - | - | - |
| 1777981464 | 20° C | 36% | 1003.3 hPa | - | - | - | - |
| 1777980859 | 20° C | 36% | 1003 hPa | - | - | - | - |
| 1777980254 | 20° C | 35% | 1003.1 hPa | - | - | - | - |
| 1777979650 | 20.56° C | 32% | 1002.8 hPa | - | - | - | - |
| 1777979045 | 20.56° C | 32% | 1002.9 hPa | - | - | - | - |
| 1777978441 | 20.56° C | 32% | 1003.4 hPa | - | - | - | - |
| 1777977837 | 20.56° C | 33% | 1003.5 hPa | - | - | - | - |
| 1777977232 | 21.67° C | 35% | 1004.1 hPa | - | - | - | - |
| 1777976628 | 20° C | 36% | 1005.2 hPa | - | - | - | - |
| 1777976023 | 18.89° C | 37% | 1005.7 hPa | - | - | - | - |
| 1777975418 | 18.89° C | 37% | 1005.6 hPa | - | - | - | - |
| 1777974814 | 18.89° C | 35% | 1005.4 hPa | - | - | - | - |
| 1777974209 | 20° C | 38% | 1005.5 hPa | - | - | - | - |
| 1777973605 | 18.89° C | 38% | 1006.2 hPa | - | - | - | - |
| 1777973000 | 18.89° C | 38% | 1006.3 hPa | - | - | - | - |
| 1777972396 | 18.89° C | 39% | 1006.3 hPa | - | - | - | - |
| 1777971791 | 20° C | 36% | 1006.4 hPa | - | - | - | - |
| 1777971187 | 20° C | 37% | 1006.9 hPa | - | - | - | - |
| 1777970582 | 18.89° C | 37% | 1007.4 hPa | - | - | - | - |
| 1777969978 | 17.78° C | 40% | 1007.8 hPa | - | - | - | - |
| 1777969373 | 17.78° C | 40% | 1008 hPa | - | - | - | - |
| 1777968768 | 17.78° C | 43% | 1008.5 hPa | - | - | - | - |
| 1777968164 | 16.67° C | 48% | 1009.4 hPa | - | - | - | - |
| 1777967559 | 15.56° C | 50% | 1010 hPa | - | - | - | - |
* Rain since midnight (hover to see other rain measurements)
** Current wind speed in m/s (hover to see current wind gust speed)